Time;durP1;ratioP1;P1;durP2;ratioP2;P2;SDS_P1;SDS_P2;PMS_P1;PMS_P2;Temp;Humidity;BMP_temperature;BMP_pressure;BME280_temperature;BME280_humidity;BME280_pressure;Samples;Min_cycle;Max_cycle;Signal;HPM_P1;HPM_P2
2022/11/22 00:00:39;;;;;;;1.77;1.67;;;;;;;8.23;56.23;100815.78;1521049;93;21589;-60
2022/11/22 00:03:07;;;;;;;1.90;1.80;;;;;;;8.27;56.35;100830.02;1539032;91;21181;-59
2022/11/22 00:05:34;;;;;;;2.15;1.80;;;;;;;8.28;56.34;100835.64;1559395;90;21090;-59
2022/11/22 00:08:01;;;;;;;2.00;1.90;;;;;;;8.31;56.53;100831.70;1570951;90;21057;-58
2022/11/22 00:10:28;;;;;;;2.20;2.00;;;;;;;8.35;56.49;100827.77;1593073;88;21126;-60
2022/11/22 00:12:55;;;;;;;2.20;2.00;;;;;;;8.41;56.48;100835.93;1581167;89;21057;-59
2022/11/22 00:15:21;;;;;;;2.20;2.00;;;;;;;8.45;56.61;100833.72;1595298;89;22760;-59
2022/11/22 00:17:49;;;;;;;2.12;1.92;;;;;;;8.51;56.26;100845.31;1590012;89;21537;-59
2022/11/22 00:20:16;;;;;;;2.52;2.33;;;;;;;8.49;56.09;100836.23;1592049;89;21039;-60
2022/11/22 00:22:44;;;;;;;2.33;2.12;;;;;;;8.46;55.88;100822.45;1586099;88;21073;-58
2022/11/22 00:25:12;;;;;;;2.33;2.12;;;;;;;8.40;55.96;100818.64;1585630;89;21089;-59
2022/11/22 00:27:39;;;;;;;2.12;2.00;;;;;;;8.33;55.87;100826.05;1587462;89;21570;-59
2022/11/22 00:30:07;;;;;;;1.80;1.70;;;;;;;8.22;55.84;100824.41;1591011;89;21169;-58
2022/11/22 00:32:36;;;;;;;2.12;2.02;;;;;;;8.12;56.16;100826.69;1584236;89;21785;-59
2022/11/22 00:35:04;;;;;;;2.40;2.20;;;;;;;8.06;56.40;100833.66;1587902;89;21045;-59
2022/11/22 00:37:31;;;;;;;2.33;2.12;;;;;;;7.98;56.32;100823.81;1587406;89;21556;-59
2022/11/22 00:39:57;;;;;;;3.62;2.67;;;;;;;7.94;56.79;100820.41;1592153;89;21043;-58
2022/11/22 00:42:25;;;;;;;2.22;2.05;;;;;;;7.94;56.97;100804.86;1589892;89;21050;-59
2022/11/22 00:44:51;;;;;;;2.20;2.00;;;;;;;7.97;57.24;100812.62;1628801;83;21500;-58
2022/11/22 00:47:17;;;;;;;2.37;2.02;;;;;;;8.03;57.08;100813.84;1692812;83;21065;-59
2022/11/22 00:49:46;;;;;;;2.30;2.10;;;;;;;8.08;56.91;100815.06;1701345;83;21074;-58
2022/11/22 00:52:13;;;;;;;2.35;2.10;;;;;;;8.10;56.83;100831.03;1710964;83;21003;-59
2022/11/22 00:54:40;;;;;;;2.30;2.10;;;;;;;8.12;56.93;100834.46;1707412;83;21613;-59
2022/11/22 00:57:07;;;;;;;2.90;2.45;;;;;;;8.18;57.00;100841.34;1706061;82;21535;-59
2022/11/22 00:59:33;;;;;;;2.98;2.70;;;;;;;8.26;56.95;100847.75;1698704;83;21735;-60
2022/11/22 01:02:00;;;;;;;4.10;2.15;;;;;;;8.33;56.79;100840.31;1706698;83;21054;-59
2022/11/22 01:04:26;;;;;;;2.58;2.37;;;;;;;8.39;56.88;100844.16;1695750;83;21104;-59
2022/11/22 01:06:53;;;;;;;2.67;2.47;;;;;;;8.46;56.48;100854.44;1693760;83;21121;-59
2022/11/22 01:09:21;;;;;;;2.70;2.50;;;;;;;8.46;56.44;100857.03;1704043;83;21039;-58
2022/11/22 01:11:48;;;;;;;2.65;2.45;;;;;;;8.48;56.45;100863.06;1696561;83;21510;-59
2022/11/22 01:14:15;;;;;;;2.75;2.55;;;;;;;8.53;56.58;100873.38;1692078;83;21058;-59
2022/11/22 01:16:42;;;;;;;2.77;2.35;;;;;;;8.54;56.49;100867.30;1697564;83;21042;-59
2022/11/22 01:19:09;;;;;;;2.70;2.50;;;;;;;8.55;56.55;100869.04;1702637;82;21100;-59
2022/11/22 01:21:36;;;;;;;2.50;2.30;;;;;;;8.56;56.46;100865.55;1694256;83;21096;-59
2022/11/22 01:24:04;;;;;;;2.50;2.30;;;;;;;8.59;56.44;100873.31;1708513;83;21015;-59
2022/11/22 01:26:32;;;;;;;2.60;2.40;;;;;;;8.61;56.35;100868.97;1709134;83;21569;-58
2022/11/22 01:28:59;;;;;;;2.40;2.25;;;;;;;8.59;56.22;100862.94;1704211;83;21054;-59
2022/11/22 01:31:28;;;;;;;2.77;2.55;;;;;;;8.62;56.11;100858.99;1703676;83;21477;-59
2022/11/22 01:33:56;;;;;;;2.60;2.40;;;;;;;8.59;56.15;100853.86;1690238;83;21530;-59
2022/11/22 01:36:23;;;;;;;2.30;2.10;;;;;;;8.59;56.28;100857.75;1705919;83;21077;-59
2022/11/22 01:38:49;;;;;;;2.60;2.40;;;;;;;8.62;56.29;100861.59;1660199;85;21098;-59
2022/11/22 01:41:16;;;;;;;2.80;2.60;;;;;;;8.63;56.33;100860.73;1654929;86;21123;-59
2022/11/22 01:43:43;;;;;;;2.83;2.62;;;;;;;8.66;56.27;100858.94;1657213;86;21082;-59
2022/11/22 01:46:32;;;;;;;2.60;2.40;;;;;;;8.67;56.35;100849.44;1658319;86;21030;-59
2022/11/22 01:49:28;;;;;;;2.90;2.70;;;;;;;8.67;56.08;100845.55;1661001;85;21553;-59
2022/11/22 01:52:01;;;;;;;2.40;2.20;;;;;;;8.65;56.03;100847.30;1664280;85;21532;-59
2022/11/22 01:54:30;;;;;;;2.60;2.40;;;;;;;8.63;55.98;100852.52;1665868;86;21534;-59
2022/11/22 01:57:00;;;;;;;2.58;2.37;;;;;;;8.62;55.99;100860.29;1654240;86;21558;-58
2022/11/22 01:59:28;;;;;;;3.42;3.12;;;;;;;8.59;55.98;100864.23;1663540;85;21342;-59
2022/11/22 02:01:55;;;;;;;2.70;2.50;;;;;;;8.54;56.09;100853.04;1648782;86;21082;-59
2022/11/22 02:04:24;;;;;;;3.10;2.70;;;;;;;8.49;56.11;100858.73;1682316;83;21078;-59
2022/11/22 02:07:02;;;;;;;3.00;2.80;;;;;;;8.43;56.22;100870.02;1674240;83;21081;-59
2022/11/22 02:09:29;;;;;;;2.90;2.60;;;;;;;8.41;56.29;100874.83;1697688;83;21509;-58
2022/11/22 02:11:57;;;;;;;3.05;2.80;;;;;;;8.41;56.47;100880.84;1697471;83;21106;-59
2022/11/22 02:14:25;;;;;;;2.90;2.70;;;;;;;8.42;56.50;100886.90;1708768;83;21132;-60
2022/11/22 02:16:52;;;;;;;3.20;2.90;;;;;;;8.44;56.48;100876.07;1711651;83;21015;-58
2022/11/22 02:19:37;;;;;;;3.05;2.75;;;;;;;8.47;56.33;100872.16;1710906;83;21085;-59
2022/11/22 02:22:36;;;;;;;3.20;2.90;;;;;;;8.47;56.29;100877.34;1642200;86;21054;-59
2022/11/22 02:25:30;;;;;;;3.62;3.33;;;;;;;8.49;56.23;100882.08;1647849;86;21035;-59
2022/11/22 02:27:57;;;;;;;2.92;2.72;;;;;;;8.48;56.12;100891.58;1652588;86;21061;-59
2022/11/22 02:30:23;;;;;;;2.92;2.72;;;;;;;8.48;56.22;100906.28;1656750;86;21085;-59
2022/11/22 02:32:50;;;;;;;3.50;3.20;;;;;;;8.48;56.14;100906.28;1647581;86;21078;-59
2022/11/22 02:35:26;;;;;;;3.20;2.90;;;;;;;8.47;55.94;100901.52;1644190;86;21101;-60
2022/11/22 02:37:57;;;;;;;3.12;2.87;;;;;;;8.45;55.88;100890.77;1644466;86;21054;-59
2022/11/22 02:40:24;;;;;;;2.98;2.77;;;;;;;8.40;55.80;100885.63;1648360;86;21135;-59
2022/11/22 02:43:04;;;;;;;3.25;2.95;;;;;;;8.35;55.82;100901.66;1652895;86;21062;-59
2022/11/22 02:45:30;;;;;;;5.17;3.70;;;;;;;8.30;55.92;100906.47;1633158;86;21087;-59
2022/11/22 02:48:10;;;;;;;2.85;2.65;;;;;;;8.26;55.97;100913.86;1638264;86;21108;-58
2022/11/22 02:50:37;;;;;;;3.15;2.95;;;;;;;8.24;56.12;100917.28;1596058;87;21128;-58
2022/11/22 02:53:04;;;;;;;3.12;2.83;;;;;;;8.22;56.05;100917.73;1623033;87;21117;-59
2022/11/22 02:55:31;;;;;;;3.02;2.83;;;;;;;8.22;56.00;100928.09;1610877;86;21549;-59
2022/11/22 02:57:57;;;;;;;3.17;2.92;;;;;;;8.20;55.93;100922.07;1611834;86;21127;-60
2022/11/22 03:00:24;;;;;;;3.45;3.15;;;;;;;8.19;56.06;100919.08;1640087;86;21136;-59
2022/11/22 03:02:52;;;;;;;3.50;3.20;;;;;;;8.19;56.20;100921.66;1623022;85;21147;-58
2022/11/22 03:05:18;;;;;;;3.58;3.27;;;;;;;8.18;56.23;100921.23;1639060;86;21631;-59
2022/11/22 03:07:46;;;;;;;3.50;3.20;;;;;;;8.19;56.09;100922.96;1626864;86;21630;-59
2022/11/22 03:10:14;;;;;;;3.52;3.22;;;;;;;8.20;55.91;100932.44;1633162;86;21565;-59
2022/11/22 03:12:41;;;;;;;3.60;3.30;;;;;;;8.22;55.88;100933.28;1636243;86;21029;-59
2022/11/22 03:15:09;;;;;;;3.35;3.05;;;;;;;8.19;55.73;100920.37;1617962;85;21586;-59
2022/11/22 03:17:37;;;;;;;3.67;3.37;;;;;;;8.16;55.52;100913.91;1635901;86;21211;-59
2022/11/22 03:20:07;;;;;;;3.67;3.33;;;;;;;8.14;55.62;100927.74;1626840;86;21561;-59
2022/11/22 03:22:33;;;;;;;3.62;3.30;;;;;;;8.09;55.69;100931.70;1628312;86;21365;-59
2022/11/22 03:25:00;;;;;;;3.20;2.90;;;;;;;8.08;55.67;100936.44;1632691;86;21097;-58
2022/11/22 03:27:26;;;;;;;3.12;2.87;;;;;;;8.05;55.51;100932.59;1645853;85;21122;-59
2022/11/22 03:29:53;;;;;;;3.00;2.80;;;;;;;8.02;55.63;100930.02;1659367;84;21550;-59
2022/11/22 03:32:19;;;;;;;3.25;2.95;;;;;;;8.00;55.67;100930.47;1670492;85;21041;-58
2022/11/22 03:34:46;;;;;;;3.30;2.95;;;;;;;8.00;55.63;100939.97;1663747;84;21097;-59
2022/11/22 03:37:14;;;;;;;5.25;3.55;;;;;;;7.99;55.65;100939.56;1693912;83;21038;-59
2022/11/22 03:39:41;;;;;;;3.17;2.90;;;;;;;7.98;55.74;100933.52;1687392;83;21633;-58
2022/11/22 03:42:08;;;;;;;3.58;3.27;;;;;;;7.96;55.79;100930.07;1696812;83;21094;-59
2022/11/22 03:44:35;;;;;;;3.10;2.80;;;;;;;7.95;55.78;100937.44;1709156;83;21043;-59
2022/11/22 03:47:01;;;;;;;3.35;3.05;;;;;;;7.96;55.83;100944.33;1704283;83;21034;-59
2022/11/22 03:49:28;;;;;;;3.37;3.08;;;;;;;7.96;55.83;100936.55;1697481;83;21051;-59
2022/11/22 03:51:54;;;;;;;3.70;3.40;;;;;;;7.98;55.80;100932.64;1702900;84;21661;-59
2022/11/22 03:54:21;;;;;;;3.17;2.92;;;;;;;7.96;55.87;100927.48;1699911;83;21011;-59
2022/11/22 03:56:48;;;;;;;3.02;2.83;;;;;;;7.95;55.97;100925.78;1694569;84;21069;-58
2022/11/22 03:59:14;;;;;;;3.65;3.35;;;;;;;7.92;55.87;100922.33;1712046;83;21475;-58
2022/11/22 04:01:41;;;;;;;3.45;3.15;;;;;;;7.89;56.04;100915.44;1706382;83;21034;-58
2022/11/22 04:04:08;;;;;;;3.47;3.17;;;;;;;7.88;56.27;100916.75;1704729;83;21156;-59
2022/11/22 04:06:34;;;;;;;3.37;3.08;;;;;;;7.84;56.36;100921.11;1706227;83;21048;-59
2022/11/22 04:09:01;;;;;;;3.55;3.25;;;;;;;7.83;56.50;100924.55;1707857;83;21006;-58
2022/11/22 04:11:27;;;;;;;3.72;3.42;;;;;;;7.82;56.43;100919.39;1699851;83;21035;-59
2022/11/22 04:16:39;;;;;;;3.30;3.00;;;;;;;7.80;56.52;100910.34;1687042;84;21038;-58
2022/11/22 04:19:07;;;;;;;3.67;3.37;;;;;;;7.81;56.52;100906.88;1677862;83;21058;-59
2022/11/22 04:21:34;;;;;;;3.52;3.22;;;;;;;7.80;56.56;100899.98;1694225;83;21562;-59
2022/11/22 04:26:54;;;;;;;3.33;3.02;;;;;;;7.80;56.48;100893.94;1656009;85;21055;-58
2022/11/22 04:29:22;;;;;;;3.58;3.27;;;;;;;7.79;56.55;100910.37;1665882;85;21062;-58
2022/11/22 04:34:35;;;;;;;3.50;3.20;;;;;;;7.77;56.57;100919.42;1662605;84;21027;-59
2022/11/22 04:37:02;;;;;;;3.95;3.52;;;;;;;7.78;56.70;100934.54;1666177;85;21074;-58
2022/11/22 04:39:29;;;;;;;4.15;3.75;;;;;;;7.77;56.75;100944.03;1670483;85;21029;-59
2022/11/22 04:44:42;;;;;;;3.72;3.40;;;;;;;7.77;56.63;100938.85;1652277;85;21106;-58
2022/11/22 04:47:10;;;;;;;4.10;3.70;;;;;;;7.81;56.54;100936.66;1662822;84;21084;-59
2022/11/22 04:49:36;;;;;;;4.08;3.67;;;;;;;7.82;56.45;100937.09;1658824;85;21568;-59
2022/11/22 04:54:49;;;;;;;3.70;3.40;;;;;;;7.72;56.59;100925.09;1664708;85;21151;-59
2022/11/22 04:57:16;;;;;;;3.72;3.42;;;;;;;7.70;56.75;100930.72;1666242;84;21041;-59
2022/11/22 04:59:42;;;;;;;3.75;3.45;;;;;;;7.70;56.81;100939.78;1667363;85;21536;-59
2022/11/22 05:02:09;;;;;;;3.60;3.30;;;;;;;7.67;56.80;100939.79;1666921;85;21047;-59
2022/11/22 05:04:35;;;;;;;4.00;3.70;;;;;;;7.67;56.80;100937.20;1665805;85;21094;-59
2022/11/22 05:07:02;;;;;;;3.55;3.25;;;;;;;7.63;56.90;100932.91;1667612;85;21046;-59
2022/11/22 05:09:29;;;;;;;4.15;3.75;;;;;;;7.60;57.00;100948.49;1668170;85;21022;-59
2022/11/22 05:11:55;;;;;;;3.83;3.52;;;;;;;7.57;57.04;100952.38;1668187;85;21023;-59
2022/11/22 05:14:22;;;;;;;4.05;3.65;;;;;;;7.53;57.25;100967.52;1668727;85;21085;-59
2022/11/22 05:16:49;;;;;;;4.00;3.70;;;;;;;7.52;57.22;100977.89;1668474;85;21115;-59
2022/11/22 05:19:16;;;;;;;4.42;4.03;;;;;;;7.50;57.35;100973.98;1665988;85;21065;-58
2022/11/22 05:21:42;;;;;;;3.85;3.55;;;;;;;7.50;57.37;100971.40;1659756;85;21041;-59
2022/11/22 05:24:09;;;;;;;4.15;3.75;;;;;;;7.49;57.41;100956.75;1695819;84;21062;-58
2022/11/22 05:26:37;;;;;;;4.40;4.00;;;;;;;7.48;57.44;100966.66;1698712;84;21003;-59
2022/11/22 05:29:09;;;;;;;4.50;4.10;;;;;;;7.50;57.53;100951.98;1700188;84;21506;-59
2022/11/22 05:31:37;;;;;;;4.67;4.10;;;;;;;7.50;57.56;100969.27;1697617;84;21054;-59
2022/11/22 05:34:04;;;;;;;4.15;3.75;;;;;;;7.49;57.62;100991.70;1699963;84;21034;-59
2022/11/22 05:36:32;;;;;;;4.15;3.85;;;;;;;7.51;57.70;100999.03;1702917;84;21066;-59
2022/11/22 05:38:59;;;;;;;4.42;4.03;;;;;;;7.52;57.76;100999.47;1699662;83;21011;-59
2022/11/22 05:41:26;;;;;;;4.05;3.70;;;;;;;7.53;57.69;101000.30;1702138;84;21078;-59
2022/11/22 05:43:55;;;;;;;4.30;3.90;;;;;;;7.52;57.76;101005.95;1699623;84;21514;-59
2022/11/22 05:46:25;;;;;;;4.62;4.22;;;;;;;7.53;57.83;101014.13;1696496;84;21463;-58
2022/11/22 05:48:53;;;;;;;4.40;4.00;;;;;;;7.57;57.95;101009.77;1703596;84;21042;-59
2022/11/22 05:51:23;;;;;;;4.85;4.30;;;;;;;7.59;57.82;101010.20;1700798;84;21019;-59
2022/11/22 05:53:50;;;;;;;5.00;4.10;;;;;;;7.61;57.84;101011.05;1635527;87;21620;-58
2022/11/22 05:56:20;;;;;;;4.67;4.20;;;;;;;7.64;57.92;101007.16;1635558;87;21111;-59
2022/11/22 05:58:46;;;;;;;4.45;4.05;;;;;;;7.68;57.98;101000.23;1635463;87;21039;-58
2022/11/22 06:01:16;;;;;;;4.97;4.47;;;;;;;7.70;57.88;101001.95;1660635;86;20999;-59
2022/11/22 07:40:50;;;;;;;5.87;5.37;;;;;;;7.99;58.13;101111.45;1701776;84;21038;-58
2022/11/22 07:43:17;;;;;;;6.03;5.40;;;;;;;7.92;58.11;101124.00;1699184;84;21042;-58
2022/11/22 07:45:44;;;;;;;6.15;5.62;;;;;;;7.86;58.19;101127.92;1699421;84;21635;-59
2022/11/22 07:48:13;;;;;;;6.65;5.97;;;;;;;7.83;58.27;101130.52;1707963;84;21112;-59
2022/11/22 07:50:40;;;;;;;5.85;5.25;;;;;;;7.84;58.57;101134.84;1699984;84;21129;-59
2022/11/22 10:33:14;;;;;;;9.58;8.68;;;;;;;6.69;68.93;101115.27;1799197;79;27624;-58
2022/11/22 10:36:08;;;;;;;8.53;7.72;;;;;;;7.85;64.44;101117.11;1750575;80;21073;-58
2022/11/22 10:39:12;;;;;;;8.33;7.53;;;;;;;8.16;63.29;101119.97;1746932;79;21544;-58
2022/11/22 10:42:13;;;;;;;7.70;7.00;;;;;;;8.38;62.56;101123.33;1674161;83;21175;-58
2022/11/22 10:45:03;;;;;;;7.33;6.60;;;;;;;8.55;61.84;101120.62;1615195;86;21083;-58
2022/11/22 10:47:58;;;;;;;7.65;6.95;;;;;;;8.69;61.17;101126.55;1629567;86;21054;-58
2022/11/22 10:50:46;;;;;;;8.50;6.70;;;;;;;8.82;60.64;101128.18;1627751;85;21093;-58
2022/11/22 10:53:24;;;;;;;7.45;6.75;;;;;;;8.92;60.26;101133.71;1604744;88;21551;-58
2022/11/22 10:56:24;;;;;;;7.80;7.00;;;;;;;9.05;59.85;101128.80;1589325;88;21063;-58
2022/11/22 10:59:18;;;;;;;7.65;6.62;;;;;;;9.16;59.58;101129.58;1605601;88;21134;-59
2022/11/22 11:02:35;;;;;;;7.30;6.60;;;;;;;9.26;58.92;101136.39;1582956;90;21088;-58
2022/11/22 11:05:05;;;;;;;6.95;6.35;;;;;;;9.34;58.65;101131.97;1512234;92;21124;-58
2022/11/22 11:07:32;;;;;;;6.60;6.00;;;;;;;9.46;58.49;101131.84;1546813;91;21111;-58
2022/11/22 11:10:05;;;;;;;6.12;5.53;;;;;;;9.59;58.39;101148.15;1534920;93;21102;-58
2022/11/22 11:12:45;;;;;;;6.53;5.92;;;;;;;9.66;58.21;101149.37;1534784;92;21629;-58
2022/11/22 11:15:43;;;;;;;6.60;5.83;;;;;;;9.77;58.03;101153.13;1490008;94;21119;-58
2022/11/22 11:18:33;;;;;;;5.87;5.35;;;;;;;9.88;57.77;101151.70;1488340;93;21107;-59
2022/11/22 11:21:00;;;;;;;5.70;5.20;;;;;;;10.03;57.64;101151.51;1476205;96;21144;-58
2022/11/22 11:23:27;;;;;;;5.90;5.30;;;;;;;10.18;57.39;101157.84;1455165;97;21756;-58
2022/11/22 11:25:53;;;;;;;5.92;5.33;;;;;;;10.31;56.92;101152.88;1451162;97;21124;-58
2022/11/22 11:28:24;;;;;;;6.72;6.03;;;;;;;10.45;56.54;101163.93;1449648;97;21131;-58
2022/11/22 11:30:57;;;;;;;5.85;5.35;;;;;;;10.56;55.86;101163.34;1454135;97;21190;-58
2022/11/22 11:33:27;;;;;;;6.15;5.55;;;;;;;10.63;55.50;101160.61;1455275;97;21174;-59
2022/11/22 11:36:07;;;;;;;6.20;5.60;;;;;;;10.72;55.13;101157.02;1455560;97;21648;-59
2022/11/22 11:38:42;;;;;;;5.72;5.17;;;;;;;10.77;54.92;101154.34;1445925;97;21621;-58
2022/11/22 11:41:32;;;;;;;5.60;5.10;;;;;;;10.82;54.70;101152.54;1451267;97;21117;-58
2022/11/22 11:44:01;;;;;;;5.58;5.08;;;;;;;10.86;54.54;101149.83;1448673;98;21220;-58
2022/11/22 11:46:44;;;;;;;6.05;5.45;;;;;;;10.88;54.52;101151.97;1455420;96;21636;-59
2022/11/22 11:49:17;;;;;;;6.25;5.50;;;;;;;10.93;54.61;101159.27;1448901;95;21166;-59
2022/11/22 11:51:47;;;;;;;6.22;5.62;;;;;;;10.93;54.20;101163.18;1484818;95;21093;-59
2022/11/22 11:54:33;;;;;;;6.30;5.72;;;;;;;10.90;54.05;101161.91;1502013;94;21704;-59
2022/11/22 11:59:43;;;;;;;5.83;5.33;;;;;;;10.82;53.89;101164.25;1443086;98;21201;-59
2022/11/22 12:02:35;;;;;;;6.42;5.83;;;;;;;10.76;53.59;101170.39;1443796;98;21679;-59
2022/11/22 12:05:15;;;;;;;;;;;;;;;10.71;53.65;101174.83;1439956;97;21159;-58
2022/11/22 12:07:46;;;;;;;6.10;5.30;;;;;;;10.61;54.05;101171.95;1492715;95;20229;-58
2022/11/22 12:10:35;;;;;;;6.47;5.87;;;;;;;10.56;54.44;101171.15;1493638;95;21137;-58
2022/11/22 12:13:23;;;;;;;6.83;6.15;;;;;;;10.55;54.72;101178.55;1491884;95;21120;-58
2022/11/22 12:16:22;;;;;;;6.22;5.62;;;;;;;10.54;54.91;101178.12;1436922;99;21147;-58
2022/11/22 12:19:22;;;;;;;6.80;6.20;;;;;;;10.52;54.66;101174.69;1479865;95;21022;-59
2022/11/22 12:22:28;;;;;;;7.05;5.80;;;;;;;10.52;54.90;101176.85;1484823;95;21081;-59
2022/11/22 12:25:03;;;;;;;6.30;5.72;;;;;;;10.56;54.85;101176.35;1483402;96;21105;-58
2022/11/22 12:27:30;;;;;;;6.45;5.72;;;;;;;10.58;54.81;101171.98;1523667;92;21072;-58
2022/11/22 12:29:57;;;;;;;5.85;5.35;;;;;;;10.60;54.77;101175.42;1531786;93;22335;-58
2022/11/22 12:32:33;;;;;;;5.85;5.35;;;;;;;10.63;54.83;101185.80;1532140;93;21107;-58
2022/11/22 12:35:14;;;;;;;6.08;5.50;;;;;;;10.65;54.61;101187.47;1520752;93;21568;-58
2022/11/22 12:37:46;;;;;;;6.25;5.65;;;;;;;10.66;54.81;101176.63;1502134;94;21156;-59
2022/11/22 12:40:23;;;;;;;;;;;;;;;10.68;54.92;101180.50;1517615;94;22137;-58
2022/11/22 12:43:04;;;;;;;6.03;5.50;;;;;;;10.68;54.88;101176.16;1508968;94;20121;-59
2022/11/22 12:45:37;;;;;;;9.53;5.50;;;;;;;10.67;54.77;101181.40;1492797;94;22010;-58
2022/11/22 12:48:10;;;;;;;5.78;5.28;;;;;;;10.66;54.79;101179.23;1454768;95;21065;-58
2022/11/22 12:50:50;;;;;;;5.95;5.35;;;;;;;10.68;55.02;101170.95;1493538;94;21116;-59
2022/11/22 12:53:31;;;;;;;5.15;4.65;;;;;;;10.71;55.03;101177.44;1518934;93;21105;-58
2022/11/22 12:56:24;;;;;;;5.22;4.78;;;;;;;10.72;54.70;101177.83;1535100;90;21117;-59
2022/11/22 12:59:05;;;;;;;5.42;4.90;;;;;;;10.71;54.77;101183.94;1562498;90;21113;-58
2022/11/22 13:01:43;;;;;;;5.03;4.55;;;;;;;10.74;55.02;101181.27;1551313;90;21113;-59
2022/11/22 13:04:27;;;;;;;7.30;4.85;;;;;;;10.80;54.91;101191.59;1573794;86;21054;-59
2022/11/22 13:07:08;;;;;;;5.10;4.62;;;;;;;10.83;54.84;101186.34;1595702;89;21592;-58
2022/11/22 13:09:39;;;;;;;4.47;4.08;;;;;;;10.86;54.72;101186.28;1593728;89;21777;-59
2022/11/22 13:12:12;;;;;;;4.15;3.75;;;;;;;10.88;54.65;101184.52;1635804;84;21046;-59
2022/11/22 13:14:44;;;;;;;4.83;4.42;;;;;;;10.88;54.45;101192.32;1615617;88;21131;-59
2022/11/22 13:17:12;;;;;;;4.62;4.22;;;;;;;10.89;54.32;101193.19;1641719;86;22971;-59
2022/11/22 13:19:48;;;;;;;5.05;4.25;;;;;;;10.87;54.18;101191.05;1646585;87;21063;-59
2022/11/22 13:22:37;;;;;;;4.28;3.87;;;;;;;10.85;54.18;101189.78;1645521;86;21186;-59
2022/11/22 13:25:41;;;;;;;4.30;3.90;;;;;;;10.82;54.04;101194.19;1653397;85;21543;-60
2022/11/22 13:28:14;;;;;;;4.00;3.70;;;;;;;10.81;53.96;101206.34;1667820;84;21011;-59
2022/11/22 13:31:06;;;;;;;4.50;4.10;;;;;;;10.84;53.90;101198.93;1656274;85;21525;-59
2022/11/22 13:33:33;;;;;;;4.30;3.90;;;;;;;10.89;53.99;101202.30;1662500;85;21058;-59
2022/11/22 13:36:25;;;;;;;4.85;4.45;;;;;;;10.94;53.62;101206.54;1655569;86;21081;-59
2022/11/22 13:39:11;;;;;;;4.22;3.87;;;;;;;10.97;53.55;101201.30;1617674;88;21033;-59
2022/11/22 13:41:58;;;;;;;4.72;4.22;;;;;;;11.00;53.46;101185.64;1594831;89;21014;-59
2022/11/22 13:44:33;;;;;;;4.28;3.87;;;;;;;11.00;53.20;101186.94;1588025;89;21533;-59
2022/11/22 13:47:13;;;;;;;4.08;3.67;;;;;;;10.98;53.10;101187.84;1569113;88;21149;-59
2022/11/22 13:49:46;;;;;;;;;;;;;;;10.97;53.19;101201.30;1570416;89;21101;-59
2022/11/22 13:52:18;;;;;;;3.85;3.50;;;;;;;10.95;53.24;101195.69;1558681;89;20214;-59
2022/11/22 13:54:56;;;;;;;3.90;3.60;;;;;;;10.94;53.17;101202.63;1565963;89;21017;-59
2022/11/22 13:57:40;;;;;;;4.90;4.40;;;;;;;10.93;53.03;101212.65;1582184;89;21574;-59
2022/11/22 19:17:13;;;;;;;12.95;11.10;;;;;;;5.94;80.68;101359.69;1786886;78;26850;-58
2022/11/22 19:19:41;;;;;;;13.58;10.95;;;;;;;7.00;74.35;101355.00;1762347;80;21041;-58
2022/11/22 19:22:08;;;;;;;12.45;10.85;;;;;;;7.25;72.70;101350.31;1756314;80;21520;-58
2022/11/22 19:24:34;;;;;;;12.95;11.55;;;;;;;7.37;72.07;101356.79;1777540;80;21002;-58
2022/11/22 19:27:02;;;;;;;12.23;10.23;;;;;;;7.49;71.53;101356.80;1766830;80;21026;-58
2022/11/22 19:29:29;;;;;;;12.15;10.50;;;;;;;7.39;71.78;101366.30;1773445;80;21082;-58
2022/11/22 19:31:56;;;;;;;12.98;11.63;;;;;;;7.43;71.71;101359.38;1756809;80;21066;-58
2022/11/22 19:34:22;;;;;;;16.45;12.85;;;;;;;7.50;71.42;101359.80;1762816;80;21042;-58
2022/11/22 19:36:49;;;;;;;15.30;13.15;;;;;;;7.59;71.11;101358.52;1756521;80;22735;-58
2022/11/22 19:39:15;;;;;;;16.67;13.10;;;;;;;7.69;70.76;101360.23;1753176;80;21023;-58
2022/11/22 19:41:42;;;;;;;14.68;12.33;;;;;;;7.76;70.47;101361.11;1775871;80;21037;-58
2022/11/22 19:44:09;;;;;;;14.47;11.83;;;;;;;7.84;70.19;101360.23;1754948;80;21006;-58
2022/11/22 19:46:37;;;;;;;11.73;10.48;;;;;;;7.93;69.88;101354.19;1755184;80;21042;-58
2022/11/22 19:49:07;;;;;;;10.70;9.63;;;;;;;8.00;69.57;101354.16;1764790;80;21066;-58
2022/11/22 19:51:35;;;;;;;10.98;9.83;;;;;;;8.06;69.23;101343.78;1753998;80;21132;-58
2022/11/22 19:54:02;;;;;;;11.43;10.23;;;;;;;8.14;68.86;101344.63;1764665;80;21081;-58
2022/11/22 19:56:32;;;;;;;11.25;10.05;;;;;;;8.22;68.44;101347.22;1753565;80;21053;-58
2022/11/22 19:59:01;;;;;;;12.93;10.35;;;;;;;8.29;68.07;101350.23;1745056;81;21046;-58
2022/11/22 20:01:30;;;;;;;12.13;9.48;;;;;;;8.55;66.90;101348.86;1758077;81;21056;-58
2022/11/22 20:04:00;;;;;;;12.47;10.60;;;;;;;8.57;66.61;101350.56;1752684;81;21022;-58
2022/11/22 20:06:26;;;;;;;24.15;21.70;;;;;;;8.69;65.96;101354.85;1758228;81;21111;-58
2022/11/22 20:09:04;;;;;;;24.02;21.45;;;;;;;8.72;65.71;101361.30;1758774;81;21097;-58
2022/11/22 20:11:32;;;;;;;17.87;16.05;;;;;;;8.66;65.64;101360.04;1756634;81;21068;-58
2022/11/22 20:13:59;;;;;;;14.65;13.15;;;;;;;8.56;65.84;101366.14;1753691;81;21002;-58
2022/11/22 20:16:27;;;;;;;12.90;10.85;;;;;;;8.56;65.75;101368.73;1759281;81;21049;-58
2022/11/22 20:19:01;;;;;;;11.25;9.68;;;;;;;8.59;65.58;101368.73;1753292;81;21006;-58
2022/11/22 20:21:30;;;;;;;14.55;10.28;;;;;;;8.60;65.39;101370.44;1747039;81;21029;-58
2022/11/22 20:23:57;;;;;;;12.75;10.93;;;;;;;8.62;65.40;101369.58;1755035;81;21083;-58
2022/11/22 20:26:24;;;;;;;12.40;11.10;;;;;;;8.60;65.41;101370.44;1752951;81;21053;-58
2022/11/22 20:29:04;;;;;;;11.68;10.45;;;;;;;8.63;65.38;101380.83;1750024;81;21370;-58
2022/11/22 20:31:33;;;;;;;11.78;10.05;;;;;;;8.64;65.33;101376.92;1653294;84;21062;-58
2022/11/22 20:33:59;;;;;;;14.85;13.25;;;;;;;8.67;65.19;101378.64;1667588;85;21498;-58
2022/11/22 20:36:29;;;;;;;15.55;13.95;;;;;;;8.68;65.14;101377.33;1662960;85;21074;-58
2022/11/22 20:38:56;;;;;;;13.88;12.47;;;;;;;8.68;64.91;101379.92;1653307;85;21572;-58
2022/11/22 20:41:27;;;;;;;13.38;11.05;;;;;;;8.69;64.73;101376.91;1662305;85;21062;-59
2022/11/22 20:43:54;;;;;;;11.38;10.18;;;;;;;8.70;64.62;101384.67;1647915;84;21046;-58
2022/11/22 20:46:24;;;;;;;17.32;14.78;;;;;;;8.71;64.53;101382.95;1655635;85;21102;-58
2022/11/22 20:48:53;;;;;;;21.42;19.23;;;;;;;8.76;64.28;101378.59;1662967;85;21208;-58
2022/11/22 20:51:25;;;;;;;19.90;17.80;;;;;;;8.78;64.13;101379.44;1659925;85;21058;-58
2022/11/22 20:53:52;;;;;;;;;;;;;;;8.79;64.01;101368.20;1671343;85;21510;-58
2022/11/22 20:56:19;;;;;;;13.43;11.55;;;;;;;8.79;63.86;101361.72;1645085;84;20114;-58
2022/11/22 20:58:45;;;;;;;12.28;10.88;;;;;;;8.74;63.98;101364.75;1674482;84;21534;-58
2022/11/22 21:01:15;;;;;;;11.60;10.30;;;;;;;8.78;63.90;101361.27;1668267;84;21533;-58
2022/11/22 21:03:42;;;;;;;11.28;9.80;;;;;;;8.79;64.06;101361.30;1658279;85;21044;-58
2022/11/22 21:06:10;;;;;;;10.85;9.53;;;;;;;8.80;64.17;101355.64;1652548;85;21110;-58
2022/11/22 21:08:38;;;;;;;17.32;9.83;;;;;;;8.81;64.34;101349.59;1671905;84;21070;-58
2022/11/22 21:11:21;;;;;;;11.05;9.85;;;;;;;8.83;64.41;101353.05;1664053;85;21031;-58
2022/11/22 21:13:49;;;;;;;;;;;;;;;8.84;64.48;101349.14;1674112;84;21109;-58
2022/11/22 21:16:19;;;;;;;12.45;10.15;;;;;;;8.86;64.49;101351.29;1669641;84;20107;-58
2022/11/22 21:19:03;;;;;;;10.98;9.88;;;;;;;8.87;64.54;101349.56;1611941;87;21103;-58
2022/11/22 21:21:33;;;;;;;10.88;9.68;;;;;;;8.87;64.47;101344.38;1614447;88;21166;-58
2022/11/22 21:24:02;;;;;;;11.63;9.48;;;;;;;8.87;64.46;101330.10;1612094;87;21072;-58
2022/11/22 21:26:29;;;;;;;11.78;9.80;;;;;;;8.88;64.39;101331.84;1584401;88;21570;-58
2022/11/22 21:28:56;;;;;;;10.85;9.45;;;;;;;8.87;64.42;101326.20;1609308;87;21042;-58
2022/11/22 21:31:22;;;;;;;11.97;9.55;;;;;;;8.88;64.42;101326.66;1603295;88;21122;-58
2022/11/22 21:33:49;;;;;;;11.88;9.58;;;;;;;8.88;64.44;101326.19;1592705;89;21087;-58
2022/11/22 21:36:16;;;;;;;10.65;9.45;;;;;;;8.89;64.44;101328.36;1599985;87;21085;-58
2022/11/22 21:38:44;;;;;;;11.93;10.10;;;;;;;8.90;64.43;101328.80;1606423;88;21086;-58
2022/11/22 21:41:15;;;;;;;12.37;10.20;;;;;;;8.90;64.40;101324.45;1614790;87;21156;-58